createdAt,value
2022-09-23T00:02:17.504Z,6.40
2022-09-23T00:04:46.819Z,8.20
2022-09-23T00:07:15.114Z,7.43
2022-09-23T00:09:43.712Z,5.53
2022-09-23T00:12:13.678Z,6.57
2022-09-23T00:14:41.922Z,7.13
2022-09-23T00:17:10.279Z,7.47
2022-09-23T00:19:40.412Z,6.47
2022-09-23T00:22:08.970Z,6.43
2022-09-23T00:24:37.531Z,7.23
2022-09-23T00:27:06.497Z,6.63
2022-09-23T00:29:37.009Z,6.50
2022-09-23T00:32:06.168Z,7.47
2022-09-23T00:34:34.518Z,6.77
2022-09-23T00:37:02.755Z,7.47
2022-09-23T00:39:31.374Z,6.77
2022-09-23T00:41:59.703Z,8.10
2022-09-23T00:44:49.138Z,6.30
2022-09-23T00:47:25.749Z,6.73
2022-09-23T00:50:03.696Z,7.43
2022-09-23T00:52:33.260Z,9.67
2022-09-23T00:55:06.511Z,6.90
2022-09-23T00:57:37.227Z,7.60
2022-09-23T01:00:10.319Z,6.77
2022-09-23T01:02:39.388Z,11.10
2022-09-23T01:05:09.987Z,7.53
2022-09-23T01:07:38.342Z,8.73
2022-09-23T01:10:10.082Z,10.70
2022-09-23T01:12:59.915Z,8.70
2022-09-23T01:15:40.875Z,6.40
2022-09-23T01:18:24.076Z,5.97
2022-09-23T01:21:19.715Z,9.03
2022-09-23T01:24:29.972Z,6.77
2022-09-23T01:27:16.001Z,7.77
2022-09-23T01:30:41.539Z,10.20
2022-09-23T01:33:19.756Z,7.47
2022-09-23T01:36:03.327Z,7.10
2022-09-23T01:38:40.446Z,6.77
2022-09-23T01:41:45.370Z,7.30
2022-09-23T01:44:22.938Z,6.50
2022-09-23T01:46:57.742Z,7.30
2022-09-23T01:49:33.772Z,6.40
2022-09-23T01:52:15.438Z,7.13
2022-09-23T01:54:54.107Z,7.37
2022-09-23T01:57:31.865Z,6.43
2022-09-23T02:00:07.978Z,7.40
2022-09-23T02:02:49.930Z,8.17
2022-09-23T02:05:26.049Z,7.43
2022-09-23T02:08:00.537Z,6.73
2022-09-23T02:10:37.481Z,7.17
2022-09-23T02:13:15.633Z,8.30
2022-09-23T02:15:51.742Z,7.93
2022-09-23T02:18:27.342Z,6.60
2022-09-23T02:21:01.615Z,7.63
2022-09-23T02:23:40.807Z,10.43
2022-09-23T02:26:20.961Z,8.13
2022-09-23T02:29:07.902Z,7.00
2022-09-23T02:31:45.463Z,9.83
2022-09-23T02:34:26.756Z,7.07
2022-09-23T02:37:11.023Z,12.63
2022-09-23T02:39:53.775Z,7.27
2022-09-23T02:42:26.443Z,6.93
2022-09-23T02:44:55.061Z,7.07
2022-09-23T02:47:29.066Z,8.20
2022-09-23T02:49:58.647Z,7.30
2022-09-23T02:52:28.109Z,7.27
2022-09-23T02:54:57.103Z,8.20
2022-09-23T02:57:25.394Z,6.13
2022-09-23T02:59:53.938Z,8.23
2022-09-23T03:02:56.024Z,8.80
2022-09-23T03:05:32.620Z,8.63
2022-09-23T03:08:25.732Z,7.47
2022-09-23T03:11:04.424Z,7.73
2022-09-23T03:13:43.640Z,9.53
2022-09-23T03:16:25.687Z,9.40
2022-09-23T03:19:07.989Z,9.57
2022-09-23T03:21:45.169Z,8.13
2022-09-23T03:24:16.533Z,8.60
2022-09-23T03:26:48.526Z,9.70
2022-09-23T03:29:19.889Z,9.20
2022-09-23T03:31:48.727Z,8.40
2022-09-23T03:34:23.919Z,9.23
2022-09-23T03:37:01.566Z,8.47
2022-09-23T03:39:40.832Z,10.13
2022-09-23T03:42:16.928Z,8.30
2022-09-23T03:44:47.070Z,9.43
2022-09-23T03:47:17.283Z,8.47
2022-09-23T03:49:49.230Z,7.77
2022-09-23T03:52:22.093Z,8.03
2022-09-23T03:54:52.120Z,11.37
2022-09-23T03:57:23.079Z,8.90
2022-09-23T03:59:52.273Z,9.43
2022-09-23T04:02:22.051Z,8.00
2022-09-23T04:04:50.536Z,7.67
2022-09-23T04:07:20.239Z,10.20
2022-09-23T04:09:48.396Z,12.13
2022-09-23T04:12:18.318Z,9.83
2022-09-23T04:14:46.925Z,9.17
2022-09-23T04:17:15.421Z,9.70
2022-09-23T04:19:43.680Z,9.53
2022-09-23T04:22:12.243Z,11.57
2022-09-23T04:24:41.889Z,8.97
2022-09-23T04:27:10.063Z,10.50
2022-09-23T04:29:38.338Z,8.90
2022-09-23T04:32:06.708Z,9.70
2022-09-23T04:34:34.919Z,10.17
2022-09-23T04:37:03.505Z,10.53
2022-09-23T04:39:31.772Z,12.63
2022-09-23T04:42:01.353Z,11.63
2022-09-23T04:44:29.560Z,10.47
2022-09-23T04:46:58.470Z,9.07
2022-09-23T04:49:26.931Z,11.63
2022-09-23T04:51:55.674Z,9.30
2022-09-23T04:54:24.225Z,9.13
2022-09-23T04:56:52.477Z,9.63
2022-09-23T04:59:22.024Z,11.30
2022-09-23T05:01:51.977Z,10.43
2022-09-23T05:04:20.233Z,10.27
2022-09-23T05:06:49.229Z,11.83
2022-09-23T05:09:18.948Z,11.87
2022-09-23T05:11:47.333Z,10.60
2022-09-23T05:14:15.738Z,10.70
2022-09-23T05:16:45.296Z,11.03
2022-09-23T05:19:13.821Z,12.17
2022-09-23T05:21:42.517Z,14.63
2022-09-23T05:24:10.779Z,12.77
2022-09-23T05:26:39.307Z,14.30
2022-09-23T05:29:08.072Z,14.47
2022-09-23T05:31:37.396Z,13.70
2022-09-23T05:34:07.606Z,11.87
2022-09-23T05:36:39.180Z,12.60
2022-09-23T05:39:09.171Z,14.20
2022-09-23T05:41:38.257Z,12.27
2022-09-23T05:44:06.666Z,14.33
2022-09-23T05:46:35.243Z,11.70
2022-09-23T05:49:05.611Z,12.67
2022-09-23T05:51:36.123Z,13.97
2022-09-23T05:54:05.652Z,14.00
2022-09-23T05:56:37.211Z,14.60
2022-09-23T05:59:07.220Z,17.50
2022-09-23T06:01:38.571Z,15.73
2022-09-23T06:04:09.241Z,17.60
2022-09-23T06:06:42.611Z,18.13
2022-09-23T06:09:14.955Z,14.87
2022-09-23T06:11:43.995Z,14.97
2022-09-23T06:14:15.028Z,14.27
2022-09-23T06:16:44.149Z,11.23
2022-09-23T06:19:12.477Z,10.67
2022-09-23T06:21:42.453Z,9.33
2022-09-23T06:24:15.581Z,9.53
2022-09-23T06:26:45.471Z,10.20
2022-09-23T06:29:14.480Z,8.93
2022-09-23T06:31:43.465Z,9.33
2022-09-23T06:34:14.863Z,10.23
2022-09-23T06:36:46.519Z,9.67
2022-09-23T06:39:16.052Z,10.47
2022-09-23T06:41:45.787Z,9.30
2022-09-23T06:44:14.613Z,8.70
2022-09-23T06:46:44.135Z,9.30
2022-09-23T06:49:13.193Z,9.80
2022-09-23T06:51:42.197Z,11.87
2022-09-23T06:54:12.031Z,9.30
2022-09-23T06:56:40.615Z,9.77
2022-09-23T06:59:13.047Z,9.52
2022-09-23T07:01:41.596Z,11.52
2022-09-23T07:04:10.689Z,10.27
2022-09-23T07:06:38.970Z,11.68
2022-09-23T07:09:09.712Z,11.48
2022-09-23T07:11:40.925Z,16.05
2022-09-23T07:14:09.364Z,9.10
2022-09-23T07:16:37.573Z,9.05
2022-09-23T07:19:05.912Z,10.10
2022-09-23T07:21:34.204Z,9.68
2022-09-23T07:24:02.882Z,11.77
2022-09-23T07:26:34.078Z,11.23
2022-09-23T07:29:05.071Z,13.60
2022-09-23T07:31:39.719Z,10.43
2022-09-23T07:34:09.982Z,10.40
2022-09-23T07:36:40.720Z,14.27
2022-09-23T07:39:11.132Z,9.55
2022-09-23T07:41:41.538Z,10.60
2022-09-23T07:44:12.658Z,10.27
2022-09-23T07:46:41.147Z,8.35
2022-09-23T07:49:10.588Z,9.02
2022-09-23T07:51:41.960Z,9.75
2022-09-23T07:54:14.755Z,9.85
2022-09-23T07:56:44.677Z,10.90
2022-09-23T07:59:18.282Z,7.63
2022-09-23T08:01:50.605Z,8.90
2022-09-23T08:04:22.784Z,7.35
2022-09-23T08:06:54.349Z,8.57
2022-09-23T08:09:26.209Z,8.52
2022-09-23T08:11:55.290Z,8.45
2022-09-23T08:14:25.012Z,9.38
2022-09-23T08:16:54.106Z,12.18
2022-09-23T08:19:22.409Z,8.80
2022-09-23T08:21:52.206Z,7.47
2022-09-23T08:24:24.263Z,9.27
2022-09-23T08:26:54.304Z,6.40
2022-09-23T08:29:26.327Z,6.63
2022-09-23T08:31:55.548Z,6.45
2022-09-23T08:34:27.798Z,6.57
2022-09-23T08:36:55.975Z,10.38
2022-09-23T08:39:24.271Z,6.55
2022-09-23T08:42:13.382Z,8.88
2022-09-23T08:44:51.844Z,7.45
2022-09-23T08:47:25.909Z,6.70
2022-09-23T08:50:03.915Z,8.55
2022-09-23T08:52:49.134Z,5.97
2022-09-23T08:55:19.532Z,6.97
2022-09-23T08:58:24.632Z,6.43
2022-09-23T09:01:11.289Z,6.65
2022-09-23T09:03:48.612Z,6.55
2022-09-23T09:06:24.194Z,5.70
2022-09-23T09:09:02.073Z,8.30
2022-09-23T09:11:36.733Z,6.35
2022-09-23T09:14:23.587Z,5.28
2022-09-23T09:17:01.650Z,6.38
2022-09-23T09:19:56.433Z,5.78
2022-09-23T09:22:43.213Z,6.65
2022-09-23T09:25:34.092Z,6.35
2022-09-23T09:28:05.140Z,7.40
2022-09-23T09:30:36.298Z,5.22
2022-09-23T09:33:15.822Z,7.75
2022-09-23T09:36:08.846Z,7.75
2022-09-23T09:38:37.581Z,5.53
2022-09-23T09:41:17.045Z,4.82
2022-09-23T09:43:52.377Z,5.35
2022-09-23T09:46:55.408Z,6.50
2022-09-23T09:49:40.496Z,6.20
2022-09-23T09:52:31.778Z,5.05
2022-09-23T09:55:26.298Z,5.53
2022-09-23T09:58:01.794Z,7.15
2022-09-23T10:00:42.723Z,4.60
2022-09-23T10:03:38.771Z,4.65
2022-09-23T10:06:20.870Z,5.15
2022-09-23T10:09:14.364Z,5.10
2022-09-23T10:11:42.896Z,5.50
2022-09-23T10:14:18.615Z,5.40
2022-09-23T10:16:49.145Z,5.45
2022-09-23T10:19:28.435Z,7.70
2022-09-23T10:22:01.812Z,7.57
2022-09-23T10:24:34.360Z,7.47
2022-09-23T10:27:07.826Z,7.30
2022-09-23T10:29:40.947Z,8.63
2022-09-23T10:32:26.686Z,7.95
2022-09-23T10:34:59.642Z,8.32
2022-09-23T10:37:38.752Z,7.43
2022-09-23T10:40:38.779Z,5.90
2022-09-23T10:43:42.871Z,6.40
2022-09-23T10:46:38.047Z,6.97
2022-09-23T10:49:53.173Z,4.85
2022-09-23T10:52:46.112Z,6.10
2022-09-23T10:55:34.761Z,6.10
2022-09-23T10:58:51.348Z,5.35
2022-09-23T11:01:36.132Z,4.90
2022-09-23T11:04:33.293Z,5.05
2022-09-23T11:07:23.962Z,9.18
2022-09-23T11:10:44.929Z,4.47
2022-09-23T11:13:26.735Z,4.75
2022-09-23T11:16:13.851Z,6.82
2022-09-23T11:19:09.147Z,5.15
2022-09-23T11:22:38.004Z,4.85
2022-09-23T11:25:31.850Z,6.50
2022-09-23T11:28:35.200Z,4.43
2022-09-23T11:31:21.574Z,6.70
2022-09-23T11:34:09.531Z,4.38
2022-09-23T11:36:44.434Z,3.92
2022-09-23T11:39:21.873Z,3.70
2022-09-23T11:41:57.713Z,5.32
2022-09-23T11:44:33.548Z,4.05
2022-09-23T11:47:10.438Z,5.28
2022-09-23T11:49:46.672Z,4.18
2022-09-23T11:52:20.626Z,4.25
2022-09-23T11:54:55.755Z,5.07
2022-09-23T11:57:47.003Z,3.75
2022-09-23T12:00:22.423Z,5.55
2022-09-23T12:03:06.600Z,4.20
2022-09-23T12:05:42.763Z,5.57
2022-09-23T12:08:29.293Z,7.13
2022-09-23T12:11:09.390Z,4.65
2022-09-23T12:13:53.882Z,4.95
2022-09-23T12:17:04.846Z,3.47
2022-09-23T12:20:16.080Z,3.65
2022-09-23T12:23:01.629Z,4.18
2022-09-23T12:25:47.379Z,3.58
2022-09-23T12:28:23.043Z,4.53
2022-09-23T12:30:57.391Z,2.50
2022-09-23T12:33:29.902Z,5.30
2022-09-23T12:36:06.642Z,4.78
2022-09-23T12:38:39.536Z,3.92
2022-09-23T12:41:28.310Z,4.55
2022-09-23T12:44:02.763Z,4.68
2022-09-23T12:46:32.459Z,3.53
2022-09-23T12:49:04.976Z,4.30
2022-09-23T12:51:35.103Z,6.25
2022-09-23T12:54:26.120Z,3.08
2022-09-23T12:57:07.165Z,4.88
2022-09-23T12:59:59.016Z,2.85
2022-09-23T13:02:39.112Z,2.20
2022-09-23T13:05:40.945Z,3.67
2022-09-23T13:08:16.979Z,4.38
2022-09-23T13:10:50.185Z,2.47
2022-09-23T13:13:27.955Z,4.05
2022-09-23T13:15:56.506Z,2.55
2022-09-23T13:18:59.640Z,4.95
2022-09-23T13:22:08.048Z,3.00
2022-09-23T13:24:42.397Z,2.92
2022-09-23T13:27:20.098Z,2.60
2022-09-23T13:29:59.846Z,3.15
2022-09-23T13:32:34.047Z,2.72
2022-09-23T13:35:16.451Z,2.58
2022-09-23T13:37:47.543Z,3.40
2022-09-23T13:40:24.791Z,1.77
2022-09-23T13:42:59.319Z,2.83
2022-09-23T13:45:30.991Z,2.40
2022-09-23T13:48:07.419Z,4.43
2022-09-23T13:50:41.668Z,4.30
2022-09-23T13:53:12.492Z,4.00
2022-09-23T13:55:41.764Z,4.20
2022-09-23T13:58:21.051Z,6.55
2022-09-23T14:00:50.713Z,3.75
2022-09-23T14:03:26.384Z,2.88
2022-09-23T14:05:57.476Z,3.38
2022-09-23T14:08:26.851Z,2.80
2022-09-23T14:10:57.064Z,3.38
2022-09-23T14:13:28.135Z,2.63
2022-09-23T14:16:00.597Z,3.40
2022-09-23T14:18:35.730Z,4.05
2022-09-23T14:21:06.555Z,5.78
2022-09-23T14:23:34.970Z,2.83
2022-09-23T14:26:03.748Z,3.20
2022-09-23T14:28:32.948Z,2.00
2022-09-23T14:31:01.583Z,4.25
2022-09-23T14:33:35.260Z,2.88
2022-09-23T14:36:30.129Z,3.17
2022-09-23T14:39:04.212Z,2.72
2022-09-23T14:41:39.165Z,3.05
2022-09-23T14:44:19.336Z,4.00
2022-09-23T14:46:58.960Z,2.00
2022-09-23T14:49:28.575Z,3.17
2022-09-23T14:52:01.675Z,3.17
2022-09-23T14:54:37.210Z,3.03
2022-09-23T14:57:27.101Z,2.65
2022-09-23T15:00:00.245Z,2.45
2022-09-23T15:02:38.359Z,3.78
2022-09-23T15:05:20.444Z,2.92
2022-09-23T15:07:52.869Z,2.28
2022-09-23T15:10:27.632Z,4.10
2022-09-23T15:13:03.322Z,4.75
2022-09-23T15:15:31.835Z,4.70
2022-09-23T15:18:08.348Z,3.13
2022-09-23T15:20:37.585Z,2.70
2022-09-23T15:23:07.582Z,6.53
2022-09-23T15:25:41.875Z,3.55
2022-09-23T15:28:23.612Z,7.68
2022-09-23T15:30:51.879Z,3.50
2022-09-23T15:33:25.038Z,5.25
2022-09-23T15:35:53.785Z,2.95
2022-09-23T15:38:23.501Z,5.03
2022-09-23T15:40:52.270Z,3.75
2022-09-23T15:43:24.454Z,5.55
2022-09-23T15:45:56.538Z,5.28
2022-09-23T15:48:31.649Z,3.85
2022-09-23T15:51:08.156Z,3.95
2022-09-23T15:53:38.210Z,4.43
2022-09-23T15:56:07.160Z,4.45
2022-09-23T15:58:35.938Z,3.22
2022-09-23T16:01:06.268Z,3.85
2022-09-23T16:03:34.564Z,2.58
2022-09-23T16:06:04.144Z,3.78
2022-09-23T16:08:33.090Z,3.42
2022-09-23T16:11:02.915Z,2.95
2022-09-23T16:13:31.157Z,3.45
2022-09-23T16:15:59.791Z,3.30
2022-09-23T16:18:28.250Z,4.20
2022-09-23T16:20:58.278Z,5.80
2022-09-23T16:23:35.854Z,6.90
2022-09-23T16:26:08.834Z,7.53
2022-09-23T16:28:37.102Z,10.75
2022-09-23T16:31:06.098Z,7.63
2022-09-23T16:33:34.697Z,4.05
2022-09-23T16:36:03.697Z,3.53
2022-09-23T16:38:32.833Z,3.83
2022-09-23T16:41:01.423Z,4.13
2022-09-23T16:43:32.731Z,4.30
2022-09-23T16:46:01.034Z,5.47
2022-09-23T16:48:29.450Z,4.90
2022-09-23T16:50:58.096Z,3.05
2022-09-23T16:53:30.103Z,4.00
2022-09-23T16:55:58.999Z,4.18
2022-09-23T16:58:27.426Z,5.50
2022-09-23T17:01:17.750Z,5.22
2022-09-23T17:03:47.737Z,4.07
2022-09-23T17:06:19.324Z,4.65
2022-09-23T17:08:49.202Z,5.40
2022-09-23T17:11:17.963Z,4.70
2022-09-23T17:13:47.621Z,6.35
2022-09-23T17:16:28.233Z,4.68
2022-09-23T17:18:57.708Z,4.60
2022-09-23T17:21:28.606Z,3.13
2022-09-23T17:23:59.028Z,8.40
2022-09-23T17:26:29.156Z,3.80
2022-09-23T17:28:59.441Z,3.83
2022-09-23T17:31:30.609Z,4.00
2022-09-23T17:33:59.107Z,5.13
2022-09-23T17:36:28.235Z,3.45
2022-09-23T17:38:57.249Z,3.03
2022-09-23T17:41:27.602Z,2.92
2022-09-23T17:44:08.126Z,4.95
2022-09-23T17:46:37.972Z,3.30
2022-09-23T17:49:07.699Z,4.95
2022-09-23T17:51:36.332Z,5.85
2022-09-23T17:54:04.976Z,6.18
2022-09-23T17:56:34.054Z,4.20
2022-09-23T17:59:03.570Z,3.90
2022-09-23T18:01:31.936Z,4.25
2022-09-23T18:04:05.606Z,3.63
2022-09-23T18:06:37.901Z,3.33
2022-09-23T18:09:08.678Z,5.00
2022-09-23T18:11:39.533Z,4.75
2022-09-23T18:14:15.438Z,6.22
2022-09-23T18:16:46.123Z,7.65
2022-09-23T18:19:19.162Z,7.63
2022-09-23T18:21:50.615Z,5.07
2022-09-23T18:24:35.717Z,7.27
2022-09-23T18:27:05.196Z,9.63
2022-09-23T18:29:34.990Z,8.40
2022-09-23T18:32:04.207Z,8.48
2022-09-23T18:34:33.986Z,9.63
2022-09-23T18:37:02.669Z,8.93
2022-09-23T18:39:30.971Z,10.40
2022-09-23T18:42:00.189Z,7.37
2022-09-23T18:44:28.460Z,8.02
2022-09-23T18:46:56.750Z,11.82
2022-09-23T18:49:42.780Z,8.32
2022-09-23T18:52:12.765Z,11.05
2022-09-23T18:54:41.250Z,10.53
2022-09-23T18:57:09.655Z,10.38
2022-09-23T18:59:38.033Z,11.25
2022-09-23T19:02:06.469Z,8.25
2022-09-23T19:04:35.112Z,9.13
2022-09-23T19:07:04.204Z,9.82
2022-09-23T19:09:34.020Z,8.23
2022-09-23T19:12:03.621Z,8.43
2022-09-23T19:14:31.919Z,8.13
2022-09-23T19:17:00.569Z,7.25
2022-09-23T19:19:30.124Z,5.90
2022-09-23T19:21:58.888Z,7.05
2022-09-23T19:24:28.177Z,5.43
2022-09-23T19:26:58.322Z,4.90
2022-09-23T19:29:27.296Z,7.53
2022-09-23T19:31:56.170Z,8.88
2022-09-23T19:34:26.072Z,7.33
2022-09-23T19:36:58.364Z,7.40
2022-09-23T19:39:31.591Z,10.18
2022-09-23T19:42:01.741Z,8.13
2022-09-23T19:44:30.267Z,6.72
2022-09-23T19:46:58.640Z,7.93
2022-09-23T19:49:27.241Z,6.85
2022-09-23T19:51:56.661Z,6.80
2022-09-23T19:54:27.408Z,7.43
2022-09-23T19:56:56.471Z,12.23
2022-09-23T19:59:28.157Z,7.07
2022-09-23T20:01:56.604Z,7.87
2022-09-23T20:04:24.967Z,11.20
2022-09-23T20:06:53.475Z,8.88
2022-09-23T20:09:22.092Z,8.97
2022-09-23T20:11:50.650Z,7.47
2022-09-23T20:14:19.856Z,7.23
2022-09-23T20:16:51.881Z,8.90
2022-09-23T20:19:20.415Z,9.55
2022-09-23T20:22:10.139Z,8.43
2022-09-23T20:24:38.570Z,8.93
2022-09-23T20:27:08.826Z,11.00
2022-09-23T20:29:37.900Z,9.17
2022-09-23T20:32:08.894Z,9.47
2022-09-23T20:34:37.181Z,9.77
2022-09-23T20:37:06.107Z,8.13
2022-09-23T20:39:34.385Z,10.33
2022-09-23T20:42:03.261Z,8.13
2022-09-23T20:44:31.555Z,9.87
2022-09-23T20:46:59.922Z,10.50
2022-09-23T20:49:34.160Z,10.20
2022-09-23T20:52:03.637Z,8.10
2022-09-23T20:54:32.280Z,8.27
2022-09-23T20:57:01.462Z,13.23
2022-09-23T20:59:29.775Z,8.50
2022-09-23T21:01:58.707Z,9.70
2022-09-23T21:04:27.366Z,8.80
2022-09-23T21:06:58.495Z,10.27
2022-09-23T21:09:28.304Z,8.57
2022-09-23T21:11:57.017Z,11.37
2022-09-23T21:14:25.610Z,8.87
2022-09-23T21:16:54.693Z,10.00
2022-09-23T21:19:24.444Z,10.03
2022-09-23T21:21:52.722Z,10.80
2022-09-23T21:24:53.506Z,9.40
2022-09-23T21:27:10.778Z,9.13
2022-09-23T21:29:40.158Z,8.80
2022-09-23T21:32:08.409Z,9.03
2022-09-23T21:34:36.655Z,8.13
2022-09-23T21:37:05.949Z,8.70
2022-09-23T21:39:36.070Z,9.20
2022-09-23T21:42:05.969Z,8.70
2022-09-23T21:44:34.953Z,9.23
2022-09-23T21:47:03.288Z,9.37
2022-09-23T21:49:32.265Z,8.97
2022-09-23T21:52:00.631Z,9.50
2022-09-23T21:54:29.612Z,8.00
2022-09-23T21:57:00.435Z,7.37
2022-09-23T21:59:29.083Z,7.37
2022-09-23T22:01:57.310Z,6.30
2022-09-23T22:04:25.645Z,11.70
2022-09-23T22:06:54.252Z,7.43
2022-09-23T22:09:22.715Z,8.73
2022-09-23T22:12:08.537Z,7.83
2022-09-23T22:14:39.162Z,8.93
2022-09-23T22:17:10.644Z,8.23
2022-09-23T22:19:45.852Z,8.43
2022-09-23T22:22:18.415Z,8.80
2022-09-23T22:24:48.917Z,8.63
2022-09-23T22:27:19.854Z,7.87
2022-09-23T22:30:07.033Z,8.93
2022-09-23T22:32:41.647Z,8.57
2022-09-23T22:35:13.146Z,9.37
2022-09-23T22:37:41.365Z,9.63
2022-09-23T22:40:14.389Z,8.97
2022-09-23T22:42:43.862Z,9.67
2022-09-23T22:45:14.075Z,8.97
2022-09-23T22:47:44.095Z,8.13
2022-09-23T22:50:13.914Z,7.20
2022-09-23T22:52:42.296Z,8.37
2022-09-23T22:55:11.793Z,8.50
2022-09-23T22:57:40.028Z,7.67
2022-09-23T23:00:12.366Z,8.33
2022-09-23T23:02:42.477Z,7.87
2022-09-23T23:05:11.056Z,9.03
2022-09-23T23:07:39.333Z,8.83
2022-09-23T23:10:10.518Z,9.07
2022-09-23T23:12:40.108Z,10.90
2022-09-23T23:15:12.647Z,8.57
2022-09-23T23:17:43.702Z,8.50
2022-09-23T23:20:12.333Z,7.10
2022-09-23T23:22:40.546Z,6.90
2022-09-23T23:25:09.768Z,8.17
2022-09-23T23:27:38.036Z,6.90
2022-09-23T23:30:08.283Z,7.83
2022-09-23T23:32:36.484Z,6.83
2022-09-23T23:35:07.523Z,9.83
2022-09-23T23:37:35.791Z,7.23
2022-09-23T23:40:04.628Z,7.10
2022-09-23T23:42:33.053Z,8.30
2022-09-23T23:45:01.411Z,7.80
2022-09-23T23:47:30.133Z,7.33
2022-09-23T23:49:58.394Z,7.17
2022-09-23T23:52:27.902Z,9.53
2022-09-23T23:54:56.268Z,6.63
2022-09-23T23:57:24.484Z,8.63
2022-09-23T23:59:52.728Z,6.73
